Time;durP1;ratioP1;P1;durP2;ratioP2;P2;SDS_P1;SDS_P2;PMS_P1;PMS_P2;Temp;Humidity;BMP_temperature;BMP_pressure;BME280_temperature;BME280_humidity;BME280_pressure;Samples;Min_cycle;Max_cycle;Signal;HPM_P1;HPM_P2
2023/08/29 00:02:13;;;;;;;21.40;11.30;;;14.80;99.90;;;;;;5043918;28;20025;-64
2023/08/29 00:04:39;;;;;;;13.85;11.10;;;14.70;99.90;;;;;;5036811;28;20032;-63
2023/08/29 00:07:05;;;;;;;16.80;11.45;;;14.60;99.90;;;;;;5047054;28;20052;-63
2023/08/29 00:09:31;;;;;;;19.73;12.95;;;14.50;99.90;;;;;;5039130;28;20352;-63
2023/08/29 00:11:57;;;;;;;20.95;13.07;;;14.40;99.90;;;;;;5042758;28;20060;-63
2023/08/29 00:14:22;;;;;;;15.63;12.32;;;14.30;99.90;;;;;;5045559;28;20029;-63
2023/08/29 00:16:48;;;;;;;18.52;11.68;;;14.30;99.90;;;;;;5039599;28;20472;-63
2023/08/29 00:19:14;;;;;;;17.45;11.38;;;14.40;99.90;;;;;;5039553;28;20574;-63
2023/08/29 00:21:41;;;;;;;17.17;11.02;;;14.40;99.90;;;;;;5049496;28;20032;-63
2023/08/29 00:24:08;;;;;;;14.55;10.63;;;14.30;99.90;;;;;;5035131;28;20072;-62
2023/08/29 00:26:33;;;;;;;14.63;9.95;;;14.40;99.90;;;;;;5035322;28;20485;-63
2023/08/29 00:28:59;;;;;;;16.20;10.70;;;14.30;99.90;;;;;;5038249;28;20042;-63
2023/08/29 00:31:24;;;;;;;16.95;11.02;;;14.30;99.90;;;;;;5036410;28;20029;-63
2023/08/29 00:33:50;;;;;;;14.85;10.30;;;14.30;99.90;;;;;;5032502;28;20037;-63
2023/08/29 00:36:15;;;;;;;16.95;11.70;;;14.20;99.90;;;;;;5032453;28;20424;-64
2023/08/29 00:38:41;;;;;;;16.88;12.13;;;14.10;99.90;;;;;;5034592;28;20021;-63
2023/08/29 00:41:06;;;;;;;14.20;11.25;;;14.10;99.90;;;;;;5043020;28;20037;-64
2023/08/29 00:43:32;;;;;;;19.13;13.27;;;14.00;99.90;;;;;;5003965;28;20044;-63
2023/08/29 00:45:58;;;;;;;19.35;12.88;;;14.00;99.90;;;;;;5016636;28;20037;-64
2023/08/29 00:48:25;;;;;;;19.80;13.57;;;13.90;99.90;;;;;;5017232;28;20059;-64
2023/08/29 00:50:50;;;;;;;20.02;13.20;;;13.90;99.90;;;;;;5030015;28;20032;-63
2023/08/29 00:53:16;;;;;;;22.52;13.25;;;14.00;99.90;;;;;;5031693;28;20029;-63
2023/08/29 00:55:42;;;;;;;17.08;12.10;;;14.00;99.90;;;;;;5031369;28;20037;-63
2023/08/29 00:58:08;;;;;;;21.42;12.57;;;14.00;99.90;;;;;;5018925;28;20056;-64
2023/08/29 01:00:34;;;;;;;16.25;12.68;;;14.10;99.90;;;;;;5030945;28;20072;-65
2023/08/29 01:03:02;;;;;;;19.52;13.13;;;14.20;99.90;;;;;;5033098;28;20033;-63
2023/08/29 01:05:28;;;;;;;15.43;12.27;;;14.20;99.90;;;;;;5030214;28;20071;-64
2023/08/29 01:07:58;;;;;;;18.55;13.93;;;14.20;99.90;;;;;;5025806;28;20188;-64
2023/08/29 01:10:51;;;;;;;20.90;13.73;;;14.20;99.90;;;;;;5035004;28;20120;-63
2023/08/29 01:13:35;;;;;;;24.60;16.40;;;14.20;99.90;;;;;;5021743;28;20037;-64
2023/08/29 01:16:05;;;;;;;33.80;20.48;;;14.30;99.90;;;;;;5032803;28;20055;-64
2023/08/29 01:18:31;;;;;;;29.70;17.90;;;14.30;99.90;;;;;;5009304;28;20029;-63
2023/08/29 01:21:06;;;;;;;23.08;16.08;;;14.50;99.90;;;;;;5035817;28;20031;-64
2023/08/29 01:23:34;;;;;;;;;;;14.50;99.90;;;;;;5018746;28;20029;-63
2023/08/29 01:26:14;;;;;;;29.02;18.40;;;14.60;99.90;;;;;;5033152;28;19943;-64
2023/08/29 01:28:42;;;;;;;24.15;18.08;;;14.60;99.90;;;;;;5035940;28;20300;-64
2023/08/29 01:31:09;;;;;;;27.90;17.67;;;14.70;99.90;;;;;;5033736;28;20017;-64
2023/08/29 01:33:35;;;;;;;31.15;21.45;;;14.70;99.90;;;;;;5033451;28;20017;-62
2023/08/29 01:36:01;;;;;;;31.63;20.45;;;14.70;99.90;;;;;;5035395;28;20037;-63
2023/08/29 01:38:26;;;;;;;28.58;19.58;;;14.70;99.90;;;;;;5033811;28;20037;-63
2023/08/29 01:40:52;;;;;;;26.00;17.67;;;14.70;99.90;;;;;;5044312;28;20024;-64
2023/08/29 01:43:17;;;;;;;27.15;19.35;;;14.80;99.90;;;;;;5036559;28;20418;-62
2023/08/29 01:45:43;;;;;;;27.52;18.30;;;14.80;99.90;;;;;;5031643;28;20037;-61
2023/08/29 01:48:11;;;;;;;30.55;19.50;;;14.80;99.90;;;;;;5031323;28;20026;-62
2023/08/29 01:50:37;;;;;;;26.70;18.50;;;14.80;99.90;;;;;;5036642;28;20138;-62
2023/08/29 01:53:03;;;;;;;28.73;18.25;;;14.90;99.90;;;;;;5035515;28;20028;-62
2023/08/29 01:55:30;;;;;;;24.48;17.80;;;14.90;99.90;;;;;;5044237;28;20029;-61
2023/08/29 01:57:58;;;;;;;26.00;17.52;;;14.90;99.90;;;;;;5036098;28;20048;-62
2023/08/29 02:00:25;;;;;;;33.83;19.20;;;14.90;99.90;;;;;;5040605;28;20089;-61
2023/08/29 02:02:51;;;;;;;27.48;17.65;;;14.90;99.90;;;;;;5042427;28;20021;-61
2023/08/29 02:05:16;;;;;;;26.73;17.75;;;14.90;99.90;;;;;;5037049;28;20572;-62
2023/08/29 02:07:42;;;;;;;25.52;15.77;;;14.90;99.90;;;;;;5038407;28;20423;-63
2023/08/29 02:10:08;;;;;;;25.23;17.20;;;14.90;99.90;;;;;;5042948;28;20020;-62
2023/08/29 02:12:34;;;;;;;24.35;17.67;;;14.90;99.90;;;;;;5037154;28;20017;-62
2023/08/29 02:15:00;;;;;;;24.02;18.67;;;14.80;99.90;;;;;;5041236;28;20429;-63
2023/08/29 02:17:26;;;;;;;29.52;18.17;;;14.80;99.90;;;;;;5037373;28;20106;-62
2023/08/29 02:19:51;;;;;;;33.47;18.92;;;14.90;99.90;;;;;;5042520;28;20060;-63
2023/08/29 02:22:17;;;;;;;27.95;18.15;;;14.90;99.90;;;;;;5036388;28;20026;-62
2023/08/29 02:24:42;;;;;;;32.28;18.23;;;14.90;99.90;;;;;;5034969;28;20035;-66
2023/08/29 02:27:08;;;;;;;36.78;19.33;;;14.90;99.90;;;;;;5031201;28;20029;-65
2023/08/29 02:29:33;;;;;;;30.10;19.02;;;14.80;99.90;;;;;;5024641;28;20032;-64
2023/08/29 02:31:59;;;;;;;25.77;17.27;;;14.90;99.90;;;;;;5028135;28;20026;-64
2023/08/29 02:34:25;;;;;;;26.98;17.65;;;14.90;99.90;;;;;;5032229;28;20065;-62
2023/08/29 02:36:52;;;;;;;29.70;18.65;;;14.90;99.90;;;;;;5019449;28;20021;-63
2023/08/29 02:39:18;;;;;;;33.78;18.80;;;15.00;99.90;;;;;;5035451;28;20026;-63
2023/08/29 02:41:44;;;;;;;31.58;20.98;;;15.00;99.90;;;;;;5026999;28;20450;-60
2023/08/29 02:44:09;;;;;;;30.27;20.85;;;15.00;99.90;;;;;;5030911;28;20033;-63
2023/08/29 02:46:35;;;;;;;29.98;20.42;;;15.00;99.90;;;;;;5002836;28;20745;-62
2023/08/29 02:49:01;;;;;;;28.73;18.80;;;15.00;99.90;;;;;;5022663;28;20025;-63
2023/08/29 02:51:26;;;;;;;30.90;20.80;;;15.00;99.90;;;;;;5027463;28;20018;-64
2023/08/29 02:53:52;;;;;;;35.13;21.83;;;15.00;99.90;;;;;;5026394;28;20022;-64
2023/08/29 02:56:17;;;;;;;31.20;20.83;;;15.00;99.90;;;;;;5031850;28;20396;-63
2023/08/29 02:58:43;;;;;;;31.02;19.77;;;15.00;99.90;;;;;;5038644;28;20036;-63
2023/08/29 03:01:12;;;;;;;32.15;19.05;;;15.00;99.90;;;;;;5033359;28;20411;-64
2023/08/29 03:03:38;;;;;;;33.83;21.20;;;14.90;99.90;;;;;;5028588;28;20669;-64
2023/08/29 03:06:04;;;;;;;29.65;20.67;;;15.00;99.90;;;;;;5021482;28;20088;-64
2023/08/29 03:08:30;;;;;;;31.08;19.63;;;15.00;99.90;;;;;;5032873;28;20025;-63
2023/08/29 03:10:56;;;;;;;38.00;22.42;;;15.00;99.90;;;;;;5034861;28;20131;-64
2023/08/29 03:13:22;;;;;;;30.80;20.17;;;15.00;99.90;;;;;;5045945;28;20385;-62
2023/08/29 03:15:48;;;;;;;32.25;21.13;;;15.00;99.90;;;;;;5030753;28;20033;-63
2023/08/29 03:18:14;;;;;;;35.20;21.70;;;15.00;99.90;;;;;;5033029;28;20033;-63
2023/08/29 03:20:44;;;;;;;30.80;20.60;;;15.10;99.90;;;;;;5029335;28;20447;-63
2023/08/29 03:23:10;;;;;;;26.88;19.88;;;15.00;99.90;;;;;;5021693;28;20033;-64
2023/08/29 03:25:36;;;;;;;37.65;21.50;;;15.00;99.90;;;;;;5029750;28;20029;-65
2023/08/29 03:28:02;;;;;;;35.70;21.85;;;15.00;99.90;;;;;;5032140;28;20590;-63
2023/08/29 03:30:29;;;;;;;29.00;19.58;;;15.00;99.90;;;;;;5027495;28;20029;-63
2023/08/29 03:32:54;;;;;;;30.98;20.15;;;15.00;99.90;;;;;;5031392;28;20051;-63
2023/08/29 03:35:20;;;;;;;31.42;21.60;;;14.90;99.90;;;;;;5031272;28;20091;-62
2023/08/29 03:37:46;;;;;;;36.20;21.00;;;14.90;99.90;;;;;;5014127;28;20033;-62
2023/08/29 03:40:12;;;;;;;31.02;19.77;;;14.90;99.90;;;;;;5040086;28;20033;-63
2023/08/29 03:42:39;;;;;;;36.00;22.00;;;15.00;99.90;;;;;;5040971;28;20036;-64
2023/08/29 03:45:05;;;;;;;35.95;21.88;;;14.90;99.90;;;;;;5014515;28;20038;-64
2023/08/29 03:47:33;;;;;;;29.48;21.00;;;14.90;99.90;;;;;;5024229;28;20037;-63
2023/08/29 03:49:59;;;;;;;33.63;21.65;;;14.90;99.90;;;;;;5036977;28;20399;-64
2023/08/29 03:52:29;;;;;;;33.97;21.95;;;14.90;99.90;;;;;;5021342;28;20034;-63
2023/08/29 03:54:55;;;;;;;36.88;22.20;;;14.90;99.90;;;;;;5041081;28;20025;-64
2023/08/29 03:57:22;;;;;;;31.58;21.52;;;14.90;99.90;;;;;;5024900;28;20030;-64
2023/08/29 03:59:48;;;;;;;34.25;20.30;;;14.90;99.90;;;;;;5026641;28;20095;-63
2023/08/29 04:02:14;;;;;;;34.22;21.92;;;14.80;99.90;;;;;;5040102;28;20457;-64
2023/08/29 04:04:39;;;;;;;37.95;22.63;;;14.80;99.90;;;;;;5040289;28;20020;-64
2023/08/29 04:07:05;;;;;;;35.03;21.45;;;14.70;99.90;;;;;;5030813;28;20763;-64
2023/08/29 04:09:31;;;;;;;38.92;21.63;;;14.70;99.90;;;;;;5040824;28;20422;-64
2023/08/29 04:11:56;;;;;;;40.78;24.65;;;14.70;99.90;;;;;;5037217;28;20403;-64
2023/08/29 04:14:22;;;;;;;43.28;22.25;;;14.60;99.90;;;;;;5042840;28;20032;-64
2023/08/29 04:16:48;;;;;;;40.20;23.75;;;14.60;99.90;;;;;;5037782;28;20565;-64
2023/08/29 04:19:14;;;;;;;42.40;25.17;;;14.50;99.90;;;;;;5042172;28;20033;-64
2023/08/29 04:21:40;;;;;;;35.78;24.25;;;14.50;99.90;;;;;;5040953;28;20099;-65
2023/08/29 04:24:06;;;;;;;47.53;26.42;;;14.40;99.90;;;;;;5021132;28;20042;-64
2023/08/29 04:26:32;;;;;;;42.20;26.30;;;14.40;99.90;;;;;;5017500;28;20029;-63
2023/08/29 04:28:58;;;;;;;44.85;27.88;;;14.40;99.90;;;;;;5029470;28;20034;-65
2023/08/29 04:31:23;;;;;;;46.85;27.30;;;14.40;99.90;;;;;;5028021;28;20021;-64
2023/08/29 04:33:49;;;;;;;51.60;28.23;;;14.30;99.90;;;;;;5039031;28;20051;-65
2023/08/29 04:36:16;;;;;;;44.20;27.27;;;14.30;99.90;;;;;;5035562;28;20088;-63
2023/08/29 04:38:44;;;;;;;46.35;28.27;;;14.30;99.90;;;;;;5030179;28;20044;-63
2023/08/29 04:41:10;;;;;;;43.78;27.20;;;14.30;99.90;;;;;;5027597;28;20056;-65
2023/08/29 04:43:35;;;;;;;43.28;25.70;;;14.30;99.90;;;;;;5026852;28;20060;-64
2023/08/29 04:46:01;;;;;;;43.33;27.77;;;14.40;99.90;;;;;;5039974;28;20034;-63
2023/08/29 04:48:26;;;;;;;49.70;26.40;;;14.40;99.90;;;;;;5029233;28;20060;-58
2023/08/29 04:50:52;;;;;;;42.60;26.00;;;14.50;99.90;;;;;;5031860;28;20100;-60
2023/08/29 04:53:18;;;;;;;41.65;26.17;;;14.50;99.90;;;;;;5030395;28;20033;-58
2023/08/29 04:55:43;;;;;;;42.53;27.38;;;14.60;99.90;;;;;;5028043;28;20515;-60
2023/08/29 04:58:09;;;;;;;51.35;26.95;;;14.60;99.90;;;;;;5042322;28;20045;-61
2023/08/29 05:00:35;;;;;;;53.08;25.90;;;14.70;99.90;;;;;;5042136;28;20032;-58
2023/08/29 05:03:04;;;;;;;42.45;25.63;;;14.70;99.90;;;;;;5032217;28;20041;-64
2023/08/29 05:05:30;;;;;;;45.42;26.35;;;14.70;99.90;;;;;;5028522;28;20044;-58
2023/08/29 05:07:55;;;;;;;41.25;25.63;;;14.80;99.90;;;;;;5026977;28;20021;-58
2023/08/29 05:10:21;;;;;;;48.03;24.70;;;14.80;99.90;;;;;;5037423;28;20372;-57
2023/08/29 05:12:47;;;;;;;48.33;25.92;;;14.80;99.90;;;;;;5028846;28;20032;-58
2023/08/29 05:15:12;;;;;;;39.30;24.77;;;14.80;99.90;;;;;;5029676;28;20029;-60
2023/08/29 05:17:38;;;;;;;41.20;25.45;;;14.80;99.90;;;;;;5034261;28;20043;-58
2023/08/29 05:20:04;;;;;;;35.38;23.15;;;14.80;99.90;;;;;;5017947;28;20629;-60
2023/08/29 05:22:30;;;;;;;37.38;25.70;;;14.80;99.90;;;;;;5030947;28;20033;-56
2023/08/29 05:24:55;;;;;;;48.15;27.33;;;14.70;99.90;;;;;;5037501;28;20034;-59
2023/08/29 05:27:21;;;;;;;47.08;26.08;;;14.70;99.90;;;;;;5041808;28;20079;-62
2023/08/29 05:29:46;;;;;;;43.38;26.58;;;14.70;99.90;;;;;;5033195;28;20033;-60
2023/08/29 05:32:12;;;;;;;43.90;26.55;;;14.70;99.90;;;;;;5025754;28;20060;-57
2023/08/29 05:34:37;;;;;;;43.70;28.63;;;14.70;99.90;;;;;;5034095;28;20108;-56
2023/08/29 05:37:03;;;;;;;41.92;27.05;;;14.80;99.90;;;;;;5033248;28;20029;-56
2023/08/29 05:39:29;;;;;;;41.85;26.15;;;14.80;99.90;;;;;;5046032;28;20028;-57
2023/08/29 05:41:54;;;;;;;43.88;26.55;;;14.80;99.90;;;;;;5041015;28;20055;-57
2023/08/29 05:44:20;;;;;;;43.40;27.58;;;14.80;99.90;;;;;;5048006;28;20025;-56
2023/08/29 05:46:46;;;;;;;42.50;27.27;;;14.80;99.90;;;;;;5031821;28;20038;-60
2023/08/29 05:49:11;;;;;;;39.58;26.85;;;14.80;99.90;;;;;;5021373;28;20029;-59
2023/08/29 05:51:37;;;;;;;44.22;28.70;;;14.90;99.90;;;;;;5029926;28;20025;-57
2023/08/29 05:54:02;;;;;;;43.63;28.10;;;14.90;99.90;;;;;;5031527;28;20100;-59
2023/08/29 05:56:28;;;;;;;43.67;28.77;;;14.90;99.90;;;;;;5014234;28;20033;-58
2023/08/29 05:58:54;;;;;;;42.25;27.65;;;15.00;99.90;;;;;;5044510;28;20029;-59
2023/08/29 06:01:20;;;;;;;45.47;29.52;;;15.00;99.90;;;;;;5029918;28;20556;-59
2023/08/29 06:03:47;;;;;;;45.63;26.60;;;15.10;99.90;;;;;;5036077;28;20079;-60
2023/08/29 06:06:14;;;;;;;41.60;27.58;;;15.10;99.90;;;;;;5035951;28;20036;-58
2023/08/29 06:08:40;;;;;;;40.40;27.13;;;15.20;99.90;;;;;;5031113;28;20033;-58
2023/08/29 06:11:06;;;;;;;40.35;26.13;;;15.20;99.90;;;;;;5023701;28;20365;-56
2023/08/29 06:13:32;;;;;;;40.08;24.38;;;15.20;99.90;;;;;;5036958;28;20029;-58
2023/08/29 06:15:57;;;;;;;40.65;26.73;;;15.30;99.90;;;;;;5040606;28;20037;-56
2023/08/29 06:18:24;;;;;;;40.47;25.02;;;15.40;99.90;;;;;;5022957;28;20040;-55
2023/08/29 06:20:49;;;;;;;36.83;25.40;;;15.40;99.90;;;;;;5040639;28;20029;-59
2023/08/29 06:23:15;;;;;;;42.65;28.10;;;15.50;99.90;;;;;;5032003;28;20025;-55
2023/08/29 06:25:41;;;;;;;38.13;26.27;;;15.50;99.90;;;;;;5032220;28;20403;-55
2023/08/29 06:28:07;;;;;;;37.33;24.73;;;15.50;99.90;;;;;;5031795;28;20072;-58
2023/08/29 06:30:34;;;;;;;39.70;27.27;;;15.50;99.90;;;;;;5035460;28;20049;-58
2023/08/29 06:33:00;;;;;;;47.85;28.25;;;15.50;99.90;;;;;;5042559;28;20025;-60
2023/08/29 06:35:25;;;;;;;40.03;27.15;;;15.60;99.90;;;;;;5025433;28;20526;-60
2023/08/29 06:37:53;;;;;;;44.70;27.50;;;15.60;99.90;;;;;;5030239;28;20032;-57
2023/08/29 06:40:19;;;;;;;48.05;29.92;;;15.60;99.90;;;;;;5038320;28;20048;-58
2023/08/29 06:42:44;;;;;;;42.55;28.17;;;15.60;99.90;;;;;;5039301;28;20031;-59
2023/08/29 06:45:10;;;;;;;43.70;27.88;;;15.70;99.90;;;;;;5045109;28;20649;-57
2023/08/29 06:47:35;;;;;;;48.17;28.42;;;15.70;99.90;;;;;;5036449;28;20029;-58
2023/08/29 06:50:01;;;;;;;44.33;28.98;;;15.80;99.90;;;;;;5045114;28;20412;-60
2023/08/29 06:52:27;;;;;;;39.92;27.48;;;15.80;99.90;;;;;;5035907;28;20456;-59
2023/08/29 06:54:53;;;;;;;46.92;28.92;;;15.80;99.90;;;;;;5043868;28;20021;-62
2023/08/29 06:57:18;;;;;;;52.40;30.63;;;15.80;99.90;;;;;;5040952;28;20369;-58
2023/08/29 06:59:44;;;;;;;47.63;29.10;;;15.80;99.90;;;;;;5046172;28;20093;-59
2023/08/29 07:02:09;;;;;;;46.80;30.45;;;15.90;99.90;;;;;;5034042;28;20034;-59
2023/08/29 07:04:35;;;;;;;51.67;30.20;;;15.80;99.90;;;;;;5032739;28;20564;-57
2023/08/29 07:07:00;;;;;;;46.78;31.30;;;15.90;99.90;;;;;;5039361;28;20020;-57
2023/08/29 07:09:27;;;;;;;48.63;32.28;;;15.90;99.90;;;;;;5041319;28;20013;-58
2023/08/29 07:11:53;;;;;;;55.00;31.65;;;15.90;99.90;;;;;;5039232;28;20367;-58
2023/08/29 07:14:19;;;;;;;47.88;31.42;;;15.90;99.90;;;;;;5039108;28;20035;-60
2023/08/29 07:16:44;;;;;;;46.28;30.25;;;16.00;99.90;;;;;;5041441;28;20112;-59
2023/08/29 07:19:11;;;;;;;44.88;29.40;;;16.00;99.90;;;;;;5046291;28;20612;-58
2023/08/29 07:21:37;;;;;;;40.67;27.00;;;16.10;99.90;;;;;;5047480;28;20029;-56
2023/08/29 07:24:03;;;;;;;49.15;29.75;;;16.20;99.90;;;;;;5044158;28;20029;-57
2023/08/29 07:26:29;;;;;;;48.67;29.98;;;16.30;99.90;;;;;;5053536;28;20017;-60
2023/08/29 07:28:54;;;;;;;43.03;28.92;;;16.40;99.90;;;;;;5044558;28;20036;-58
2023/08/29 07:31:20;;;;;;;45.22;31.02;;;16.40;99.90;;;;;;5046771;28;20029;-58
2023/08/29 07:33:45;;;;;;;44.15;28.00;;;16.50;99.90;;;;;;5036786;28;20114;-58
2023/08/29 07:36:11;;;;;;;47.30;32.47;;;16.50;99.90;;;;;;5034835;28;20021;-59
2023/08/29 07:38:36;;;;;;;49.33;31.85;;;16.60;99.90;;;;;;5046084;28;20033;-57
2023/08/29 07:41:02;;;;;;;50.78;34.65;;;16.40;99.90;;;;;;5047247;28;20025;-59
2023/08/29 07:43:28;;;;;;;53.97;33.63;;;16.40;99.90;;;;;;5052976;28;20017;-57
2023/08/29 07:45:53;;;;;;;53.97;36.05;;;16.50;99.90;;;;;;5046536;28;20570;-60
2023/08/29 07:48:20;;;;;;;58.92;38.50;;;16.60;99.90;;;;;;5038438;28;20029;-59
2023/08/29 07:50:46;;;;;;;55.72;35.67;;;16.60;99.90;;;;;;5034506;28;20699;-58
2023/08/29 07:53:11;;;;;;;63.17;38.20;;;16.60;99.90;;;;;;5043133;28;20043;-55
2023/08/29 07:55:37;;;;;;;71.10;43.85;;;16.70;99.90;;;;;;5040335;28;20483;-58
2023/08/29 07:58:03;;;;;;;70.00;43.25;;;16.80;99.90;;;;;;5039809;28;20543;-59
2023/08/29 08:00:29;;;;;;;69.65;43.42;;;16.70;99.90;;;;;;5043505;28;20029;-58
2023/08/29 08:02:54;;;;;;;60.00;37.92;;;16.80;99.90;;;;;;5048597;28;20027;-56
2023/08/29 08:05:20;;;;;;;61.33;37.72;;;16.70;99.90;;;;;;5043482;28;20024;-59
2023/08/29 08:07:46;;;;;;;57.38;34.83;;;16.70;99.90;;;;;;5038783;28;20109;-57
2023/08/29 08:10:14;;;;;;;60.03;35.65;;;16.70;99.90;;;;;;5039694;28;20103;-59
2023/08/29 08:12:40;;;;;;;57.03;34.17;;;16.80;99.90;;;;;;5043649;28;20099;-59
2023/08/29 08:15:07;;;;;;;61.75;36.70;;;16.90;99.90;;;;;;5042288;28;20026;-58
2023/08/29 08:17:34;;;;;;;62.85;35.08;;;16.90;99.90;;;;;;5035617;28;20091;-60
2023/08/29 08:19:59;;;;;;;61.05;38.08;;;16.90;99.90;;;;;;5033940;28;20459;-57
2023/08/29 08:22:25;;;;;;;68.35;39.88;;;16.90;99.90;;;;;;5039836;28;20284;-58
2023/08/29 08:24:51;;;;;;;61.60;37.55;;;16.90;99.90;;;;;;5034428;28;20041;-59
2023/08/29 08:27:17;;;;;;;67.28;40.60;;;17.00;99.90;;;;;;5044305;28;20024;-59
2023/08/29 08:29:43;;;;;;;70.50;42.58;;;17.00;99.90;;;;;;5051000;28;20029;-57
2023/08/29 08:32:08;;;;;;;66.15;39.42;;;17.00;99.90;;;;;;5033389;28;20083;-59
2023/08/29 08:34:34;;;;;;;67.97;39.20;;;17.10;99.90;;;;;;5042015;28;20024;-56
2023/08/29 08:37:00;;;;;;;75.57;41.70;;;17.00;99.90;;;;;;5049757;28;20020;-59
2023/08/29 08:39:25;;;;;;;69.65;40.67;;;17.00;99.90;;;;;;5043274;28;20116;-59
2023/08/29 08:41:51;;;;;;;70.18;39.70;;;17.10;99.90;;;;;;5046147;28;20030;-58
2023/08/29 08:44:20;;;;;;;64.60;38.28;;;17.20;99.90;;;;;;5042350;28;20033;-58
2023/08/29 08:46:46;;;;;;;63.40;35.83;;;17.20;99.90;;;;;;5043267;28;20036;-57
2023/08/29 08:49:12;;;;;;;66.15;37.67;;;17.30;99.90;;;;;;5040793;28;20383;-58
2023/08/29 08:51:40;;;;;;;71.80;40.25;;;17.30;99.90;;;;;;5042193;28;20021;-57
2023/08/29 08:54:09;;;;;;;69.78;38.83;;;17.30;99.90;;;;;;5041367;28;20021;-59
2023/08/29 08:56:36;;;;;;;60.50;34.92;;;17.30;99.90;;;;;;5036965;28;20109;-58
2023/08/29 08:59:03;;;;;;;58.67;34.03;;;17.40;99.90;;;;;;5033859;28;20143;-56
2023/08/29 09:01:29;;;;;;;62.55;35.15;;;17.40;99.90;;;;;;5033433;28;20026;-60
2023/08/29 09:03:55;;;;;;;64.45;35.47;;;17.50;99.90;;;;;;5044195;28;20017;-59
2023/08/29 09:06:20;;;;;;;58.65;35.03;;;17.40;99.90;;;;;;5044184;28;20059;-59
2023/08/29 09:08:46;;;;;;;57.28;31.75;;;17.40;99.90;;;;;;5041243;28;20070;-58
2023/08/29 09:11:12;;;;;;;52.58;29.85;;;17.40;99.90;;;;;;5031385;28;20025;-59
2023/08/29 09:13:46;;;;;;;56.92;31.92;;;17.50;99.90;;;;;;5032599;28;20407;-58
2023/08/29 09:16:12;;;;;;;;;;;17.60;99.90;;;;;;5039633;28;20025;-58
2023/08/29 09:18:41;;;;;;;51.67;31.38;;;17.60;99.90;;;;;;5045799;28;19990;-59
2023/08/29 09:21:16;;;;;;;49.70;30.15;;;17.60;99.90;;;;;;5037984;28;20032;-59
2023/08/29 09:23:42;;;;;;;52.75;29.55;;;17.60;99.90;;;;;;5044696;28;20029;-56
2023/08/29 09:26:10;;;;;;;50.67;28.80;;;17.60;99.90;;;;;;5043657;28;20025;-58
2023/08/29 09:28:36;;;;;;;47.13;27.92;;;17.70;99.90;;;;;;5037141;28;20048;-57
2023/08/29 09:31:06;;;;;;;49.28;30.02;;;17.80;99.90;;;;;;5040133;28;20035;-61
2023/08/29 09:33:32;;;;;;;54.38;30.63;;;17.80;99.90;;;;;;5041206;28;20017;-59
2023/08/29 09:36:07;;;;;;;51.38;31.65;;;17.80;99.90;;;;;;5041718;28;20101;-58
2023/08/29 09:38:33;;;;;;;61.45;34.95;;;17.80;99.90;;;;;;5040788;28;20075;-57
2023/08/29 09:40:59;;;;;;;61.30;34.60;;;17.80;99.90;;;;;;5045621;28;20163;-59
2023/08/29 09:43:27;;;;;;;55.58;32.85;;;17.90;99.90;;;;;;5051768;28;20487;-57
2023/08/29 09:45:54;;;;;;;56.13;32.70;;;17.90;99.90;;;;;;5051998;28;20397;-58
2023/08/29 09:48:20;;;;;;;57.15;33.33;;;18.00;99.90;;;;;;5038959;28;20021;-56
2023/08/29 09:50:47;;;;;;;58.50;32.83;;;18.10;99.90;;;;;;5046629;28;20502;-55
2023/08/29 09:53:18;;;;;;;61.22;33.97;;;18.20;99.90;;;;;;5037429;28;20522;-54
2023/08/29 09:55:48;;;;;;;68.25;39.47;;;18.20;99.90;;;;;;5038359;28;20373;-57
2023/08/29 09:58:16;;;;;;;62.03;35.72;;;18.30;99.90;;;;;;5039721;28;20029;-57
2023/08/29 10:00:43;;;;;;;60.35;33.60;;;18.30;99.90;;;;;;5041492;28;20040;-56
2023/08/29 10:03:10;;;;;;;61.33;34.58;;;18.40;99.90;;;;;;5038040;28;20355;-57
2023/08/29 10:05:44;;;;;;;56.80;33.65;;;18.40;99.90;;;;;;5042961;28;20051;-58
2023/08/29 10:08:24;;;;;;;;;;;18.50;99.90;;;;;;5035529;28;20414;-58
2023/08/29 10:10:50;;;;;;;38.13;22.88;;;18.60;99.90;;;;;;5034437;28;19992;-56
2023/08/29 10:13:18;;;;;;;37.95;22.58;;;18.60;99.90;;;;;;5044620;28;20025;-57
2023/08/29 10:15:46;;;;;;;39.00;20.60;;;18.70;99.90;;;;;;5035052;28;20511;-56
2023/08/29 10:18:12;;;;;;;39.38;21.38;;;18.80;99.90;;;;;;5030503;28;21034;-57
2023/08/29 10:20:43;;;;;;;40.53;24.65;;;18.90;99.90;;;;;;5039884;28;20017;-58
2023/08/29 10:23:09;;;;;;;46.17;25.13;;;19.00;99.90;;;;;;5041620;28;20115;-58
2023/08/29 10:25:36;;;;;;;46.25;26.70;;;19.10;99.90;;;;;;5039082;28;20021;-55
2023/08/29 10:28:03;;;;;;;48.03;27.15;;;19.20;99.90;;;;;;5047289;28;20035;-57
2023/08/29 10:30:30;;;;;;;44.22;27.80;;;19.30;99.90;;;;;;5042595;28;20082;-57
2023/08/29 10:32:57;;;;;;;47.22;29.40;;;19.50;99.90;;;;;;5038991;28;20048;-58
2023/08/29 10:35:23;;;;;;;51.67;30.92;;;19.70;99.90;;;;;;5033538;28;20495;-55
2023/08/29 10:37:52;;;;;;;50.10;31.70;;;19.80;99.90;;;;;;5043039;28;20033;-57
2023/08/29 10:40:19;;;;;;;52.13;33.20;;;19.90;99.90;;;;;;5035725;28;20025;-59
2023/08/29 10:43:00;;;;;;;58.30;34.17;;;19.90;99.90;;;;;;5042650;28;20021;-55
2023/08/29 10:45:48;;;;;;;53.45;34.72;;;19.80;99.90;;;;;;5033588;28;20100;-55
2023/08/29 10:48:18;;;;;;;54.38;33.92;;;19.80;99.90;;;;;;5039198;28;20077;-57
2023/08/29 10:51:08;;;;;;;47.00;29.98;;;19.80;99.90;;;;;;5036704;28;20025;-57
2023/08/29 10:53:45;;;;;;;46.60;30.77;;;19.90;99.90;;;;;;5041812;28;20033;-59
2023/08/29 10:56:12;;;;;;;44.05;29.13;;;19.80;99.90;;;;;;5045523;28;20024;-58
2023/08/29 10:58:42;;;;;;;41.47;26.75;;;19.70;99.90;;;;;;5046191;28;20053;-57
2023/08/29 11:01:30;;;;;;;46.20;30.05;;;19.80;99.90;;;;;;5039223;28;20027;-58
2023/08/29 11:03:57;;;;;;;39.72;27.73;;;19.80;99.90;;;;;;5025734;28;20032;-59
2023/08/29 11:06:25;;;;;;;38.15;25.90;;;20.00;99.90;;;;;;5024952;28;20029;-59
2023/08/29 11:09:10;;;;;;;36.90;23.95;;;19.90;99.90;;;;;;5039481;28;20072;-58
2023/08/29 11:11:36;;;;;;;36.83;24.05;;;20.20;99.90;;;;;;5041400;28;20394;-59
2023/08/29 11:14:08;;;;;;;35.75;23.75;;;20.30;99.90;;;;;;5039813;28;20017;-56
2023/08/29 11:16:37;;;;;;;36.25;22.45;;;20.20;99.90;;;;;;5044765;28;20033;-57
2023/08/29 11:19:14;;;;;;;35.25;21.13;;;20.30;99.90;;;;;;5029593;28;20726;-56
2023/08/29 11:21:44;;;;;;;28.20;20.33;;;20.30;99.90;;;;;;5039760;28;20432;-58
2023/08/29 11:24:10;;;;;;;28.58;19.60;;;20.10;99.90;;;;;;5036624;28;20036;-55
2023/08/29 11:26:40;;;;;;;32.88;21.77;;;20.10;99.90;;;;;;5043109;28;20038;-57
2023/08/29 11:29:06;;;;;;;40.17;27.70;;;20.00;99.90;;;;;;5045299;28;20104;-59
2023/08/29 11:31:37;;;;;;;41.60;28.05;;;19.90;99.90;;;;;;5037636;28;20101;-56
2023/08/29 11:34:03;;;;;;;36.33;26.02;;;19.90;99.90;;;;;;5040350;28;20021;-58
2023/08/29 11:36:32;;;;;;;37.92;26.02;;;19.70;99.90;;;;;;5044960;28;20364;-59
2023/08/29 11:38:58;;;;;;;35.63;25.52;;;19.80;99.90;;;;;;5036046;28;20048;-58
2023/08/29 11:41:28;;;;;;;37.40;26.15;;;19.90;99.90;;;;;;5039752;28;20122;-58
2023/08/29 11:43:55;;;;;;;41.60;28.73;;;20.00;99.90;;;;;;5051864;28;20016;-57
2023/08/29 11:46:21;;;;;;;47.03;32.95;;;20.10;99.90;;;;;;5034314;28;20021;-58
2023/08/29 11:48:47;;;;;;;48.72;33.17;;;20.20;99.90;;;;;;5037845;28;20026;-59
2023/08/29 11:51:13;;;;;;;42.30;30.67;;;20.30;99.90;;;;;;5043967;28;20103;-58
2023/08/29 11:53:38;;;;;;;39.15;28.20;;;20.30;99.90;;;;;;5046492;28;20066;-59
2023/08/29 11:56:09;;;;;;;35.65;23.70;;;20.50;99.90;;;;;;5038832;28;20044;-58
2023/08/29 11:58:36;;;;;;;31.58;23.55;;;20.60;99.90;;;;;;5034497;28;20418;-60
2023/08/29 12:01:05;;;;;;;31.25;22.38;;;20.60;99.90;;;;;;5043534;28;20025;-58
2023/08/29 12:03:35;;;;;;;29.77;20.95;;;20.80;99.90;;;;;;5035063;28;20116;-56
2023/08/29 12:06:03;;;;;;;27.75;19.83;;;20.80;99.90;;;;;;5037989;28;20075;-58
2023/08/29 12:08:45;;;;;;;37.35;21.52;;;20.90;99.90;;;;;;5036408;28;20087;-57
2023/08/29 12:11:15;;;;;;;24.95;15.40;;;20.90;99.90;;;;;;5043719;28;20097;-58
2023/08/29 12:13:56;;;;;;;30.65;19.33;;;21.10;99.90;;;;;;5037424;28;20487;-57
2023/08/29 12:16:22;;;;;;;30.63;22.05;;;21.10;99.90;;;;;;5039473;28;20391;-59
2023/08/29 12:18:47;;;;;;;31.85;21.95;;;21.00;99.90;;;;;;5050247;28;20025;-59
2023/08/29 12:21:17;;;;;;;32.63;21.40;;;20.80;99.90;;;;;;5051051;28;20025;-58
2023/08/29 12:23:44;;;;;;;28.60;20.63;;;20.80;99.90;;;;;;5049945;28;20025;-58
2023/08/29 12:26:14;;;;;;;23.20;16.65;;;20.80;99.90;;;;;;5047509;28;20100;-56
2023/08/29 12:28:40;;;;;;;19.98;14.98;;;20.70;99.90;;;;;;5052105;28;20105;-56